sensor_id;sensor_type;location;lat;lon;timestamp;P1;durP1;ratioP1;P2;durP2;ratioP2
48873;SDS011;35220;46.204;5.220;2022-11-06T00:04:27;32.92;;;18.20;;
48873;SDS011;35220;46.204;5.220;2022-11-06T00:09:29;28.17;;;15.43;;
48873;SDS011;35220;46.204;5.220;2022-11-06T00:14:29;24.23;;;14.63;;
48873;SDS011;35220;46.204;5.220;2022-11-06T00:19:29;27.00;;;14.40;;
48873;SDS011;35220;46.204;5.220;2022-11-06T00:24:30;25.58;;;13.43;;
48873;SDS011;35220;46.204;5.220;2022-11-06T00:29:30;22.48;;;12.63;;
48873;SDS011;35220;46.204;5.220;2022-11-06T00:34:31;25.30;;;12.90;;
48873;SDS011;35220;46.204;5.220;2022-11-06T00:39:31;25.90;;;13.30;;
48873;SDS011;35220;46.204;5.220;2022-11-06T00:44:31;23.23;;;11.73;;
48873;SDS011;35220;46.204;5.220;2022-11-06T00:49:32;26.50;;;12.27;;
48873;SDS011;35220;46.204;5.220;2022-11-06T00:54:32;25.17;;;16.60;;
48873;SDS011;35220;46.204;5.220;2022-11-06T00:59:32;28.63;;;16.53;;
48873;SDS011;35220;46.204;5.220;2022-11-06T01:04:34;22.42;;;11.93;;
48873;SDS011;35220;46.204;5.220;2022-11-06T01:09:34;18.25;;;9.98;;
48873;SDS011;35220;46.204;5.220;2022-11-06T01:14:35;16.53;;;8.40;;
48873;SDS011;35220;46.204;5.220;2022-11-06T01:19:38;19.10;;;10.50;;
48873;SDS011;35220;46.204;5.220;2022-11-06T01:24:39;16.80;;;10.05;;
48873;SDS011;35220;46.204;5.220;2022-11-06T01:29:39;15.77;;;7.55;;
48873;SDS011;35220;46.204;5.220;2022-11-06T01:34:39;10.23;;;5.90;;
48873;SDS011;35220;46.204;5.220;2022-11-06T01:39:40;11.90;;;5.93;;
48873;SDS011;35220;46.204;5.220;2022-11-06T01:49:40;11.90;;;6.50;;
48873;SDS011;35220;46.204;5.220;2022-11-06T01:54:41;10.55;;;6.35;;
48873;SDS011;35220;46.204;5.220;2022-11-06T01:59:44;9.77;;;5.78;;
48873;SDS011;35220;46.204;5.220;2022-11-06T02:04:46;11.68;;;6.55;;
48873;SDS011;35220;46.204;5.220;2022-11-06T02:09:47;11.90;;;6.85;;
48873;SDS011;35220;46.204;5.220;2022-11-06T02:14:55;8.57;;;6.57;;
48873;SDS011;35220;46.204;5.220;2022-11-06T02:20:27;12.25;;;5.70;;
48873;SDS011;35220;46.204;5.220;2022-11-06T02:30:33;12.88;;;5.88;;
48873;SDS011;35220;46.204;5.220;2022-11-06T02:40:47;8.00;;;5.35;;
48873;SDS011;35220;46.204;5.220;2022-11-06T02:45:53;7.55;;;4.38;;
48873;SDS011;35220;46.204;5.220;2022-11-06T02:50:57;7.75;;;5.72;;
48873;SDS011;35220;46.204;5.220;2022-11-06T02:56:04;10.27;;;5.35;;
48873;SDS011;35220;46.204;5.220;2022-11-06T03:01:18;10.90;;;6.30;;
48873;SDS011;35220;46.204;5.220;2022-11-06T03:06:28;11.05;;;7.15;;
48873;SDS011;35220;46.204;5.220;2022-11-06T03:11:35;7.75;;;5.30;;
48873;SDS011;35220;46.204;5.220;2022-11-06T03:16:46;9.55;;;5.07;;
48873;SDS011;35220;46.204;5.220;2022-11-06T03:22:03;10.38;;;5.50;;
48873;SDS011;35220;46.204;5.220;2022-11-06T03:27:35;9.53;;;5.67;;
48873;SDS011;35220;46.204;5.220;2022-11-06T03:38:21;10.45;;;6.43;;
48873;SDS011;35220;46.204;5.220;2022-11-06T03:43:27;10.00;;;5.20;;
48873;SDS011;35220;46.204;5.220;2022-11-06T03:48:39;8.73;;;5.07;;
48873;SDS011;35220;46.204;5.220;2022-11-06T03:53:54;10.30;;;5.10;;
48873;SDS011;35220;46.204;5.220;2022-11-06T03:59:07;8.55;;;5.05;;
48873;SDS011;35220;46.204;5.220;2022-11-06T04:04:29;8.32;;;5.20;;
48873;SDS011;35220;46.204;5.220;2022-11-06T04:09:41;7.93;;;4.63;;
48873;SDS011;35220;46.204;5.220;2022-11-06T04:15:04;7.22;;;4.15;;
48873;SDS011;35220;46.204;5.220;2022-11-06T04:20:10;9.20;;;4.25;;
48873;SDS011;35220;46.204;5.220;2022-11-06T04:25:39;4.18;;;3.25;;
48873;SDS011;35220;46.204;5.220;2022-11-06T04:31:10;5.35;;;3.63;;
48873;SDS011;35220;46.204;5.220;2022-11-06T04:41:32;10.13;;;4.43;;
48873;SDS011;35220;46.204;5.220;2022-11-06T04:46:41;12.07;;;4.55;;
48873;SDS011;35220;46.204;5.220;2022-11-06T04:51:46;14.88;;;5.03;;
48873;SDS011;35220;46.204;5.220;2022-11-06T04:56:47;7.38;;;4.32;;
48873;SDS011;35220;46.204;5.220;2022-11-06T05:01:47;7.87;;;4.00;;
48873;SDS011;35220;46.204;5.220;2022-11-06T05:06:48;7.77;;;4.00;;
48873;SDS011;35220;46.204;5.220;2022-11-06T05:11:48;8.77;;;4.00;;
48873;SDS011;35220;46.204;5.220;2022-11-06T05:16:48;7.88;;;3.67;;
48873;SDS011;35220;46.204;5.220;2022-11-06T05:21:49;9.05;;;4.50;;
48873;SDS011;35220;46.204;5.220;2022-11-06T05:27:08;13.98;;;5.05;;
48873;SDS011;35220;46.204;5.220;2022-11-06T05:32:08;6.33;;;3.47;;
48873;SDS011;35220;46.204;5.220;2022-11-06T05:37:09;7.70;;;4.68;;
48873;SDS011;35220;46.204;5.220;2022-11-06T05:42:09;10.20;;;5.33;;
48873;SDS011;35220;46.204;5.220;2022-11-06T05:47:09;8.18;;;3.75;;
48873;SDS011;35220;46.204;5.220;2022-11-06T05:52:10;9.45;;;3.88;;
48873;SDS011;35220;46.204;5.220;2022-11-06T05:57:10;5.65;;;3.42;;
48873;SDS011;35220;46.204;5.220;2022-11-06T06:02:11;7.37;;;3.73;;
48873;SDS011;35220;46.204;5.220;2022-11-06T06:07:11;6.78;;;3.95;;
48873;SDS011;35220;46.204;5.220;2022-11-06T06:12:11;7.22;;;3.55;;
48873;SDS011;35220;46.204;5.220;2022-11-06T06:17:12;7.78;;;4.03;;
48873;SDS011;35220;46.204;5.220;2022-11-06T06:22:13;9.57;;;4.20;;
48873;SDS011;35220;46.204;5.220;2022-11-06T06:27:13;7.97;;;3.97;;
48873;SDS011;35220;46.204;5.220;2022-11-06T06:32:14;12.67;;;5.33;;
48873;SDS011;35220;46.204;5.220;2022-11-06T06:37:14;7.63;;;4.53;;
48873;SDS011;35220;46.204;5.220;2022-11-06T06:42:15;8.57;;;4.65;;
48873;SDS011;35220;46.204;5.220;2022-11-06T06:47:15;9.65;;;5.25;;
48873;SDS011;35220;46.204;5.220;2022-11-06T06:52:17;12.02;;;5.28;;
48873;SDS011;35220;46.204;5.220;2022-11-06T06:57:17;6.65;;;4.13;;
48873;SDS011;35220;46.204;5.220;2022-11-06T07:02:18;7.30;;;4.20;;
48873;SDS011;35220;46.204;5.220;2022-11-06T07:07:18;7.13;;;4.25;;
48873;SDS011;35220;46.204;5.220;2022-11-06T07:12:18;8.57;;;4.20;;
48873;SDS011;35220;46.204;5.220;2022-11-06T07:17:21;11.30;;;5.07;;
48873;SDS011;35220;46.204;5.220;2022-11-06T07:22:24;7.33;;;4.30;;
48873;SDS011;35220;46.204;5.220;2022-11-06T07:27:26;8.70;;;4.93;;
48873;SDS011;35220;46.204;5.220;2022-11-06T07:32:28;10.40;;;5.10;;
48873;SDS011;35220;46.204;5.220;2022-11-06T07:37:29;9.65;;;5.10;;
48873;SDS011;35220;46.204;5.220;2022-11-06T07:42:29;7.28;;;4.55;;
48873;SDS011;35220;46.204;5.220;2022-11-06T07:47:30;8.48;;;4.50;;
48873;SDS011;35220;46.204;5.220;2022-11-06T07:52:30;7.53;;;4.10;;
48873;SDS011;35220;46.204;5.220;2022-11-06T07:57:34;7.85;;;4.38;;
48873;SDS011;35220;46.204;5.220;2022-11-06T08:02:37;8.52;;;4.80;;
48873;SDS011;35220;46.204;5.220;2022-11-06T08:07:37;6.90;;;4.13;;
48873;SDS011;35220;46.204;5.220;2022-11-06T08:12:38;7.47;;;4.18;;
48873;SDS011;35220;46.204;5.220;2022-11-06T08:17:38;8.73;;;5.03;;
48873;SDS011;35220;46.204;5.220;2022-11-06T08:22:39;6.72;;;4.20;;
48873;SDS011;35220;46.204;5.220;2022-11-06T08:27:39;8.43;;;3.72;;
48873;SDS011;35220;46.204;5.220;2022-11-06T08:32:39;8.60;;;4.70;;
48873;SDS011;35220;46.204;5.220;2022-11-06T08:37:40;9.30;;;4.90;;
48873;SDS011;35220;46.204;5.220;2022-11-06T08:42:40;8.80;;;4.65;;
48873;SDS011;35220;46.204;5.220;2022-11-06T08:47:41;10.93;;;5.30;;
48873;SDS011;35220;46.204;5.220;2022-11-06T08:52:41;8.70;;;5.60;;
48873;SDS011;35220;46.204;5.220;2022-11-06T08:57:41;11.57;;;5.68;;
48873;SDS011;35220;46.204;5.220;2022-11-06T09:02:42;10.43;;;5.43;;
48873;SDS011;35220;46.204;5.220;2022-11-06T09:07:42;9.80;;;4.97;;
48873;SDS011;35220;46.204;5.220;2022-11-06T09:12:43;10.90;;;5.83;;
48873;SDS011;35220;46.204;5.220;2022-11-06T09:17:44;8.93;;;4.63;;
48873;SDS011;35220;46.204;5.220;2022-11-06T09:22:45;8.48;;;4.75;;
48873;SDS011;35220;46.204;5.220;2022-11-06T09:27:48;8.95;;;5.68;;
48873;SDS011;35220;46.204;5.220;2022-11-06T09:32:53;9.05;;;4.97;;
48873;SDS011;35220;46.204;5.220;2022-11-06T09:37:59;8.77;;;4.72;;
48873;SDS011;35220;46.204;5.220;2022-11-06T09:48:28;7.00;;;4.65;;
48873;SDS011;35220;46.204;5.220;2022-11-06T09:53:35;8.88;;;5.10;;
48873;SDS011;35220;46.204;5.220;2022-11-06T09:58:41;6.35;;;4.15;;
48873;SDS011;35220;46.204;5.220;2022-11-06T10:09:10;7.47;;;4.20;;
48873;SDS011;35220;46.204;5.220;2022-11-06T10:14:15;7.90;;;4.65;;
48873;SDS011;35220;46.204;5.220;2022-11-06T10:19:48;9.07;;;4.90;;
48873;SDS011;35220;46.204;5.220;2022-11-06T10:24:58;7.28;;;4.57;;
48873;SDS011;35220;46.204;5.220;2022-11-06T10:30:21;7.75;;;4.35;;
48873;SDS011;35220;46.204;5.220;2022-11-06T10:35:45;9.57;;;4.63;;
48873;SDS011;35220;46.204;5.220;2022-11-06T10:40:49;8.93;;;5.53;;
48873;SDS011;35220;46.204;5.220;2022-11-06T10:45:58;10.52;;;4.63;;
48873;SDS011;35220;46.204;5.220;2022-11-06T11:02:50;8.25;;;4.80;;
48873;SDS011;35220;46.204;5.220;2022-11-06T11:07:35;8.65;;;5.10;;
48873;SDS011;35220;46.204;5.220;2022-11-06T11:12:36;10.70;;;5.07;;
48873;SDS011;35220;46.204;5.220;2022-11-06T11:17:37;10.32;;;5.25;;
48873;SDS011;35220;46.204;5.220;2022-11-06T11:22:37;8.60;;;4.72;;
48873;SDS011;35220;46.204;5.220;2022-11-06T11:27:42;10.97;;;4.77;;
48873;SDS011;35220;46.204;5.220;2022-11-06T11:32:44;8.75;;;5.20;;
48873;SDS011;35220;46.204;5.220;2022-11-06T11:37:44;9.02;;;5.20;;
48873;SDS011;35220;46.204;5.220;2022-11-06T11:42:45;8.73;;;4.72;;
48873;SDS011;35220;46.204;5.220;2022-11-06T11:47:47;8.97;;;4.80;;
48873;SDS011;35220;46.204;5.220;2022-11-06T11:52:52;8.25;;;4.60;;
48873;SDS011;35220;46.204;5.220;2022-11-06T11:57:57;6.10;;;4.18;;
48873;SDS011;35220;46.204;5.220;2022-11-06T12:03:00;7.00;;;4.47;;
48873;SDS011;35220;46.204;5.220;2022-11-06T12:08:11;7.32;;;4.20;;
48873;SDS011;35220;46.204;5.220;2022-11-06T12:13:21;6.93;;;3.95;;
48873;SDS011;35220;46.204;5.220;2022-11-06T12:23:45;2.58;;;2.00;;
48873;SDS011;35220;46.204;5.220;2022-11-06T12:28:51;2.73;;;1.90;;
48873;SDS011;35220;46.204;5.220;2022-11-06T12:33:56;2.30;;;1.60;;
48873;SDS011;35220;46.204;5.220;2022-11-06T12:39:02;3.37;;;1.83;;
48873;SDS011;35220;46.204;5.220;2022-11-06T12:44:08;3.00;;;1.40;;
48873;SDS011;35220;46.204;5.220;2022-11-06T12:54:28;2.08;;;1.65;;
48873;SDS011;35220;46.204;5.220;2022-11-06T13:15:35;2.33;;;1.58;;
48873;SDS011;35220;46.204;5.220;2022-11-06T13:20:51;1.23;;;1.13;;
48873;SDS011;35220;46.204;5.220;2022-11-06T13:31:19;3.97;;;1.63;;
48873;SDS011;35220;46.204;5.220;2022-11-06T13:36:21;2.72;;;1.90;;
48873;SDS011;35220;46.204;5.220;2022-11-06T13:41:27;3.88;;;1.50;;
48873;SDS011;35220;46.204;5.220;2022-11-06T13:46:37;1.75;;;1.42;;
48873;SDS011;35220;46.204;5.220;2022-11-06T14:07:55;3.45;;;1.98;;
48873;SDS011;35220;46.204;5.220;2022-11-06T14:12:57;2.40;;;1.70;;
48873;SDS011;35220;46.204;5.220;2022-11-06T14:17:58;1.73;;;1.50;;
48873;SDS011;35220;46.204;5.220;2022-11-06T14:28:46;2.30;;;1.55;;
48873;SDS011;35220;46.204;5.220;2022-11-06T14:38:48;2.08;;;1.63;;
48873;SDS011;35220;46.204;5.220;2022-11-06T14:43:49;2.70;;;1.83;;
48873;SDS011;35220;46.204;5.220;2022-11-06T14:48:51;2.20;;;1.50;;
48873;SDS011;35220;46.204;5.220;2022-11-06T14:53:59;2.45;;;1.60;;
48873;SDS011;35220;46.204;5.220;2022-11-06T14:59:06;1.83;;;1.40;;
48873;SDS011;35220;46.204;5.220;2022-11-06T15:04:18;2.28;;;1.83;;
48873;SDS011;35220;46.204;5.220;2022-11-06T15:19:24;2.77;;;1.50;;
48873;SDS011;35220;46.204;5.220;2022-11-06T15:24:28;1.83;;;1.45;;
48873;SDS011;35220;46.204;5.220;2022-11-06T15:29:33;2.95;;;1.77;;
48873;SDS011;35220;46.204;5.220;2022-11-06T15:34:37;2.88;;;1.75;;
48873;SDS011;35220;46.204;5.220;2022-11-06T15:39:54;3.08;;;1.70;;
48873;SDS011;35220;46.204;5.220;2022-11-06T15:45:08;3.28;;;2.28;;
48873;SDS011;35220;46.204;5.220;2022-11-06T15:55:28;3.53;;;2.80;;
48873;SDS011;35220;46.204;5.220;2022-11-06T16:00:32;4.25;;;2.28;;
48873;SDS011;35220;46.204;5.220;2022-11-06T16:05:34;3.92;;;1.88;;
48873;SDS011;35220;46.204;5.220;2022-11-06T16:10:38;2.35;;;1.60;;
48873;SDS011;35220;46.204;5.220;2022-11-06T16:20:44;4.30;;;2.97;;
48873;SDS011;35220;46.204;5.220;2022-11-06T16:25:48;3.70;;;1.73;;
48873;SDS011;35220;46.204;5.220;2022-11-06T16:30:48;3.90;;;1.98;;
48873;SDS011;35220;46.204;5.220;2022-11-06T16:35:49;2.35;;;1.70;;
48873;SDS011;35220;46.204;5.220;2022-11-06T16:41:05;3.22;;;1.73;;
48873;SDS011;35220;46.204;5.220;2022-11-06T16:46:06;3.95;;;2.63;;
48873;SDS011;35220;46.204;5.220;2022-11-06T16:56:11;3.88;;;2.00;;
48873;SDS011;35220;46.204;5.220;2022-11-06T17:01:12;4.57;;;2.10;;
48873;SDS011;35220;46.204;5.220;2022-11-06T17:06:22;3.65;;;1.80;;
48873;SDS011;35220;46.204;5.220;2022-11-06T17:11:30;3.83;;;2.00;;
48873;SDS011;35220;46.204;5.220;2022-11-06T17:16:32;4.82;;;2.70;;
48873;SDS011;35220;46.204;5.220;2022-11-06T17:21:45;4.85;;;2.00;;
48873;SDS011;35220;46.204;5.220;2022-11-06T17:26:48;4.72;;;2.60;;
48873;SDS011;35220;46.204;5.220;2022-11-06T17:31:50;5.55;;;3.22;;
48873;SDS011;35220;46.204;5.220;2022-11-06T17:36:50;7.00;;;3.30;;
48873;SDS011;35220;46.204;5.220;2022-11-06T17:41:51;6.47;;;3.35;;
48873;SDS011;35220;46.204;5.220;2022-11-06T17:46:52;6.30;;;2.60;;
48873;SDS011;35220;46.204;5.220;2022-11-06T17:51:52;4.73;;;2.10;;
48873;SDS011;35220;46.204;5.220;2022-11-06T17:56:59;4.00;;;2.10;;
48873;SDS011;35220;46.204;5.220;2022-11-06T18:02:01;3.40;;;2.20;;
48873;SDS011;35220;46.204;5.220;2022-11-06T18:07:01;3.67;;;2.00;;
48873;SDS011;35220;46.204;5.220;2022-11-06T18:12:05;3.53;;;2.30;;
48873;SDS011;35220;46.204;5.220;2022-11-06T18:17:07;5.70;;;2.22;;
48873;SDS011;35220;46.204;5.220;2022-11-06T18:22:08;2.90;;;1.85;;
48873;SDS011;35220;46.204;5.220;2022-11-06T18:27:08;3.65;;;1.90;;
48873;SDS011;35220;46.204;5.220;2022-11-06T18:32:09;2.70;;;1.80;;
48873;SDS011;35220;46.204;5.220;2022-11-06T18:37:09;2.72;;;1.58;;
48873;SDS011;35220;46.204;5.220;2022-11-06T18:42:10;2.75;;;1.77;;
48873;SDS011;35220;46.204;5.220;2022-11-06T18:47:11;4.55;;;2.60;;
48873;SDS011;35220;46.204;5.220;2022-11-06T18:52:11;2.75;;;2.05;;
48873;SDS011;35220;46.204;5.220;2022-11-06T18:57:11;2.40;;;1.87;;
48873;SDS011;35220;46.204;5.220;2022-11-06T19:02:15;5.35;;;2.10;;
48873;SDS011;35220;46.204;5.220;2022-11-06T19:07:17;3.05;;;1.85;;
48873;SDS011;35220;46.204;5.220;2022-11-06T19:12:17;4.03;;;2.20;;
48873;SDS011;35220;46.204;5.220;2022-11-06T19:17:18;3.13;;;1.90;;
48873;SDS011;35220;46.204;5.220;2022-11-06T19:22:19;2.42;;;1.50;;
48873;SDS011;35220;46.204;5.220;2022-11-06T19:27:19;2.58;;;1.70;;
48873;SDS011;35220;46.204;5.220;2022-11-06T19:32:19;5.80;;;2.50;;
48873;SDS011;35220;46.204;5.220;2022-11-06T19:37:20;3.30;;;2.00;;
48873;SDS011;35220;46.204;5.220;2022-11-06T19:42:20;4.70;;;2.50;;
48873;SDS011;35220;46.204;5.220;2022-11-06T19:47:20;4.90;;;2.77;;
48873;SDS011;35220;46.204;5.220;2022-11-06T19:52:21;6.22;;;2.35;;
48873;SDS011;35220;46.204;5.220;2022-11-06T19:57:21;3.23;;;2.17;;
48873;SDS011;35220;46.204;5.220;2022-11-06T20:02:22;3.40;;;1.92;;
48873;SDS011;35220;46.204;5.220;2022-11-06T20:07:22;3.35;;;1.80;;
48873;SDS011;35220;46.204;5.220;2022-11-06T20:12:23;2.33;;;1.63;;
48873;SDS011;35220;46.204;5.220;2022-11-06T20:17:23;3.42;;;2.00;;
48873;SDS011;35220;46.204;5.220;2022-11-06T20:22:24;4.15;;;1.85;;
48873;SDS011;35220;46.204;5.220;2022-11-06T20:27:24;1.88;;;1.63;;
48873;SDS011;35220;46.204;5.220;2022-11-06T20:32:24;7.00;;;1.97;;
48873;SDS011;35220;46.204;5.220;2022-11-06T20:37:25;3.10;;;1.90;;
48873;SDS011;35220;46.204;5.220;2022-11-06T20:42:26;2.05;;;1.48;;
48873;SDS011;35220;46.204;5.220;2022-11-06T20:47:26;2.30;;;1.60;;
48873;SDS011;35220;46.204;5.220;2022-11-06T20:52:26;5.00;;;1.70;;
48873;SDS011;35220;46.204;5.220;2022-11-06T20:57:27;2.28;;;1.95;;
48873;SDS011;35220;46.204;5.220;2022-11-06T21:02:27;2.67;;;1.87;;
48873;SDS011;35220;46.204;5.220;2022-11-06T21:07:28;3.37;;;1.70;;
48873;SDS011;35220;46.204;5.220;2022-11-06T21:12:28;4.68;;;2.15;;
48873;SDS011;35220;46.204;5.220;2022-11-06T21:17:29;3.72;;;1.92;;
48873;SDS011;35220;46.204;5.220;2022-11-06T21:22:29;4.28;;;2.00;;
48873;SDS011;35220;46.204;5.220;2022-11-06T21:27:30;5.47;;;1.88;;
48873;SDS011;35220;46.204;5.220;2022-11-06T21:32:30;3.92;;;1.90;;
48873;SDS011;35220;46.204;5.220;2022-11-06T21:37:30;4.27;;;2.10;;
48873;SDS011;35220;46.204;5.220;2022-11-06T21:42:31;3.38;;;1.90;;
48873;SDS011;35220;46.204;5.220;2022-11-06T21:47:32;5.13;;;2.00;;
48873;SDS011;35220;46.204;5.220;2022-11-06T21:52:32;1.93;;;1.73;;
48873;SDS011;35220;46.204;5.220;2022-11-06T21:57:51;3.50;;;2.10;;
48873;SDS011;35220;46.204;5.220;2022-11-06T22:02:51;3.47;;;2.22;;
48873;SDS011;35220;46.204;5.220;2022-11-06T22:07:52;4.73;;;2.50;;
48873;SDS011;35220;46.204;5.220;2022-11-06T22:12:52;3.40;;;2.13;;
48873;SDS011;35220;46.204;5.220;2022-11-06T22:17:53;2.38;;;1.95;;
48873;SDS011;35220;46.204;5.220;2022-11-06T22:22:54;2.95;;;1.85;;
48873;SDS011;35220;46.204;5.220;2022-11-06T22:27:54;2.65;;;1.60;;
48873;SDS011;35220;46.204;5.220;2022-11-06T22:32:54;2.43;;;1.97;;
48873;SDS011;35220;46.204;5.220;2022-11-06T22:37:55;3.28;;;1.70;;
48873;SDS011;35220;46.204;5.220;2022-11-06T22:42:55;2.63;;;1.83;;
48873;SDS011;35220;46.204;5.220;2022-11-06T22:47:56;2.65;;;1.90;;
48873;SDS011;35220;46.204;5.220;2022-11-06T22:52:56;3.58;;;2.10;;
48873;SDS011;35220;46.204;5.220;2022-11-06T22:57:56;4.97;;;1.70;;
48873;SDS011;35220;46.204;5.220;2022-11-06T23:02:57;2.77;;;1.70;;
48873;SDS011;35220;46.204;5.220;2022-11-06T23:07:57;2.63;;;1.63;;
48873;SDS011;35220;46.204;5.220;2022-11-06T23:12:57;3.40;;;1.57;;
48873;SDS011;35220;46.204;5.220;2022-11-06T23:17:58;4.30;;;1.90;;
48873;SDS011;35220;46.204;5.220;2022-11-06T23:22:59;2.92;;;1.80;;
48873;SDS011;35220;46.204;5.220;2022-11-06T23:28:01;4.45;;;1.58;;
48873;SDS011;35220;46.204;5.220;2022-11-06T23:33:01;3.63;;;1.50;;
48873;SDS011;35220;46.204;5.220;2022-11-06T23:38:02;2.20;;;1.70;;
48873;SDS011;35220;46.204;5.220;2022-11-06T23:43:02;2.35;;;1.40;;
48873;SDS011;35220;46.204;5.220;2022-11-06T23:48:03;2.88;;;1.67;;
48873;SDS011;35220;46.204;5.220;2022-11-06T23:53:04;2.08;;;1.80;;
48873;SDS011;35220;46.204;5.220;2022-11-06T23:58:04;2.10;;;1.50;;
